Time;durP1;ratioP1;P1;durP2;ratioP2;P2;SDS_P1;SDS_P2;PMS_P1;PMS_P2;Temp;Humidity;BMP_temperature;BMP_pressure;BME280_temperature;BME280_humidity;BME280_pressure;Samples;Min_cycle;Max_cycle;Signal;HPM_P1;HPM_P2
2022/11/02 00:01:18;;;;;;;14.70;11.43;;;12.40;99.90;;;;;;5074019;28;20446;-45
2022/11/02 00:03:44;;;;;;;14.73;11.00;;;12.60;99.90;;;;;;5073746;28;20407;-45
2022/11/02 00:06:11;;;;;;;12.60;11.30;;;12.60;99.90;;;;;;5073922;28;20439;-45
2022/11/02 00:08:37;;;;;;;14.50;10.43;;;12.20;99.90;;;;;;5073326;28;20896;-46
2022/11/02 00:11:04;;;;;;;11.37;10.17;;;11.70;99.90;;;;;;5073659;28;20431;-45
2022/11/02 00:13:31;;;;;;;13.60;11.37;;;12.40;99.90;;;;;;5073824;28;20414;-45
2022/11/02 00:16:01;;;;;;;11.37;10.23;;;12.30;99.90;;;;;;5073859;28;20406;-46
2022/11/02 00:18:28;;;;;;;14.30;10.43;;;12.10;99.90;;;;;;5073319;28;20437;-45
2022/11/02 00:20:55;;;;;;;12.27;9.90;;;12.90;99.90;;;;;;5073510;28;20902;-45
2022/11/02 00:23:22;;;;;;;11.20;9.70;;;12.40;99.90;;;;;;5074014;28;20432;-46
2022/11/02 00:25:51;;;;;;;12.00;10.80;;;12.20;99.90;;;;;;5073899;28;20408;-45
2022/11/02 00:28:18;;;;;;;10.43;9.33;;;12.30;99.90;;;;;;5074110;28;20863;-45
2022/11/02 00:30:45;;;;;;;17.20;9.40;;;12.30;99.90;;;;;;5055933;28;20461;-43
2022/11/02 00:33:13;;;;;;;12.10;9.80;;;12.50;99.90;;;;;;5074968;28;20419;-44
2022/11/02 00:35:41;;;;;;;11.00;9.00;;;12.30;99.90;;;;;;5055549;28;20487;-44
2022/11/02 00:38:08;;;;;;;12.50;9.60;;;12.10;99.90;;;;;;5055569;28;20448;-45
2022/11/02 00:40:34;;;;;;;15.83;9.43;;;12.30;99.90;;;;;;5072870;28;20431;-45
2022/11/02 00:43:01;;;;;;;10.03;9.13;;;11.70;99.90;;;;;;5055078;28;20459;-45
2022/11/02 00:45:27;;;;;;;13.70;10.00;;;12.10;99.90;;;;;;5073097;28;20785;-45
2022/11/02 00:47:56;;;;;;;12.00;9.33;;;12.00;99.90;;;;;;5072975;28;20546;-47
2022/11/02 00:50:24;;;;;;;11.47;9.20;;;12.40;99.90;;;;;;5072931;28;20433;-47
2022/11/02 00:52:50;;;;;;;14.00;9.73;;;11.90;99.90;;;;;;5054878;28;20451;-45
2022/11/02 00:55:18;;;;;;;10.40;9.00;;;12.00;99.90;;;;;;5055109;28;20975;-45
2022/11/02 00:57:45;;;;;;;12.60;9.13;;;11.40;99.90;;;;;;5056554;28;20445;-48
2022/11/02 01:00:13;;;;;;;11.60;8.60;;;12.20;99.90;;;;;;5074607;28;20410;-45
2022/11/02 01:02:39;;;;;;;17.53;10.37;;;11.80;99.90;;;;;;5055662;28;20842;-46
2022/11/02 01:05:08;;;;;;;9.57;8.23;;;11.40;99.90;;;;;;5073710;28;20423;-46
2022/11/02 01:07:36;;;;;;;9.77;8.40;;;12.00;99.90;;;;;;5054681;28;20493;-45
2022/11/02 01:10:05;;;;;;;9.63;8.60;;;11.90;99.90;;;;;;5054460;28;20451;-45
2022/11/02 01:12:32;;;;;;;12.10;8.57;;;12.20;99.90;;;;;;5072371;28;20436;-45
2022/11/02 01:14:58;;;;;;;9.53;8.53;;;12.30;99.90;;;;;;5072726;28;20914;-46
2022/11/02 01:17:25;;;;;;;8.77;7.30;;;11.50;99.90;;;;;;5072430;28;20434;-47
2022/11/02 01:19:52;;;;;;;8.50;7.60;;;11.90;99.90;;;;;;5054024;28;20763;-46
2022/11/02 01:22:18;;;;;;;14.90;8.40;;;11.90;99.90;;;;;;5054354;28;20485;-45
2022/11/02 01:24:46;;;;;;;11.80;8.10;;;11.80;99.90;;;;;;5072872;28;20535;-46
2022/11/02 01:27:13;;;;;;;11.33;8.70;;;12.30;99.90;;;;;;5073781;28;20457;-46
2022/11/02 01:29:39;;;;;;;10.53;7.67;;;11.40;99.90;;;;;;5072937;28;20427;-46
2022/11/02 01:32:06;;;;;;;9.13;7.63;;;11.90;99.90;;;;;;5073669;28;20444;-45
2022/11/02 01:34:32;;;;;;;8.20;7.40;;;11.70;99.90;;;;;;5073807;28;20528;-45
2022/11/02 01:36:59;;;;;;;10.57;7.03;;;11.50;99.90;;;;;;5073974;28;20960;-44
2022/11/02 01:39:26;;;;;;;8.27;7.47;;;11.10;99.90;;;;;;5073435;28;20419;-46
2022/11/02 01:41:54;;;;;;;7.37;6.60;;;11.70;99.90;;;;;;5073832;28;20455;-44
2022/11/02 01:44:27;;;;;;;11.03;6.90;;;11.10;99.90;;;;;;5055759;28;20447;-47
2022/11/02 01:46:58;;;;;;;7.70;6.27;;;11.80;99.90;;;;;;5073907;28;20463;-46
2022/11/02 01:49:25;;;;;;;10.60;7.23;;;11.80;99.90;;;;;;5073400;28;20971;-45
2022/11/02 01:51:59;;;;;;;14.37;7.50;;;11.70;99.90;;;;;;5073709;28;20463;-46
2022/11/02 01:54:29;;;;;;;8.83;7.13;;;11.90;99.90;;;;;;5055613;28;20426;-45
2022/11/02 01:57:04;;;;;;;9.83;6.90;;;11.60;99.90;;;;;;5073402;28;20427;-44
2022/11/02 01:59:35;;;;;;;7.67;5.67;;;12.20;99.90;;;;;;5055315;28;20454;-45
2022/11/02 02:02:04;;;;;;;8.03;5.67;;;11.20;99.90;;;;;;5055933;28;20996;-45
2022/11/02 02:04:33;;;;;;;10.90;6.70;;;11.60;99.90;;;;;;5055487;28;20524;-45
2022/11/02 02:07:00;;;;;;;8.80;5.23;;;11.00;99.90;;;;;;5073055;28;20410;-45
2022/11/02 02:09:27;;;;;;;7.83;5.70;;;11.20;99.90;;;;;;5053102;28;20480;-46
2022/11/02 02:11:55;;;;;;;11.20;5.67;;;11.50;99.90;;;;;;5053515;28;20470;-45
2022/11/02 02:14:24;;;;;;;7.87;5.70;;;11.80;99.90;;;;;;5071059;28;20459;-46
2022/11/02 02:17:04;;;;;;;8.23;5.20;;;11.60;99.90;;;;;;5071573;28;20581;-46
2022/11/02 02:19:40;;;;;;;9.60;5.67;;;11.60;99.90;;;;;;5053184;28;20421;-46
2022/11/02 02:22:21;;;;;;;7.73;5.17;;;11.60;99.90;;;;;;5053457;28;20816;-46
2022/11/02 02:25:00;;;;;;;9.10;5.37;;;11.40;99.90;;;;;;5053598;28;20460;-45
2022/11/02 02:27:31;;;;;;;8.40;5.40;;;11.40;99.90;;;;;;5071204;28;20435;-46
2022/11/02 02:30:09;;;;;;;10.07;5.10;;;11.60;99.90;;;;;;5052731;28;20430;-46
2022/11/02 02:32:44;;;;;;;8.00;5.20;;;11.20;99.90;;;;;;5071230;28;20471;-45
2022/11/02 02:35:18;;;;;;;6.77;4.27;;;11.60;99.90;;;;;;5071222;28;20523;-46
2022/11/02 02:37:54;;;;;;;6.77;3.97;;;11.70;99.90;;;;;;5070975;28;20917;-48
2022/11/02 02:40:27;;;;;;;5.70;4.40;;;11.40;99.90;;;;;;5052704;28;20958;-44
2022/11/02 02:42:58;;;;;;;6.53;4.83;;;11.20;99.90;;;;;;5052817;28;20451;-45
2022/11/02 02:45:33;;;;;;;6.20;4.07;;;11.40;99.90;;;;;;5052741;28;20442;-45
2022/11/02 02:48:06;;;;;;;15.30;4.33;;;11.50;99.90;;;;;;5070989;28;20473;-46
2022/11/02 02:50:37;;;;;;;7.23;4.10;;;11.10;99.90;;;;;;5052666;28;20447;-45
2022/11/02 02:53:07;;;;;;;5.03;3.73;;;10.70;99.90;;;;;;5052608;28;20580;-44
2022/11/02 02:55:39;;;;;;;8.27;4.83;;;11.00;99.90;;;;;;5052912;28;20463;-46
2022/11/02 02:58:12;;;;;;;6.57;3.93;;;11.80;99.90;;;;;;5053134;28;20844;-46
2022/11/02 03:00:41;;;;;;;7.27;3.83;;;10.90;99.90;;;;;;5052730;28;20444;-46
2022/11/02 03:03:09;;;;;;;6.07;3.47;;;11.20;99.90;;;;;;5070770;28;20425;-45
2022/11/02 03:05:37;;;;;;;9.57;4.30;;;11.60;99.90;;;;;;5070644;28;20899;-44
2022/11/02 03:08:10;;;;;;;8.30;3.50;;;11.40;99.90;;;;;;5052572;28;20479;-45
2022/11/02 03:10:43;;;;;;;6.83;4.10;;;10.90;99.90;;;;;;5070346;28;20872;-44
2022/11/02 03:13:26;;;;;;;8.13;3.80;;;11.40;99.90;;;;;;5052721;28;20975;-45
2022/11/02 03:15:58;;;;;;;4.63;3.57;;;11.60;99.90;;;;;;5052634;28;20532;-45
2022/11/02 03:18:31;;;;;;;4.97;3.60;;;11.10;99.90;;;;;;5052246;28;20510;-47
2022/11/02 03:21:06;;;;;;;5.07;4.47;;;11.50;99.90;;;;;;5052344;28;20417;-45
2022/11/02 03:23:37;;;;;;;5.83;4.20;;;11.20;99.90;;;;;;5070404;28;21064;-45
2022/11/02 03:26:09;;;;;;;5.40;3.60;;;11.80;99.90;;;;;;5054751;28;20422;-45
2022/11/02 03:28:52;;;;;;;7.20;4.40;;;11.20;99.90;;;;;;5055552;28;20483;-45
2022/11/02 03:31:33;;;;;;;5.53;3.90;;;11.10;99.90;;;;;;5055864;28;20677;-45
2022/11/02 03:34:07;;;;;;;11.63;3.60;;;11.30;99.90;;;;;;5055957;28;20470;-45
2022/11/02 03:36:43;;;;;;;6.77;3.93;;;11.40;99.90;;;;;;5074048;28;20455;-47
2022/11/02 03:39:13;;;;;;;5.73;3.63;;;11.20;99.90;;;;;;5055538;28;20452;-45
2022/11/02 03:41:44;;;;;;;4.73;3.53;;;11.30;99.90;;;;;;5055903;28;20467;-45
2022/11/02 03:44:15;;;;;;;6.53;3.93;;;11.20;99.90;;;;;;5055989;28;20452;-45
2022/11/02 03:46:44;;;;;;;7.33;3.83;;;11.20;99.90;;;;;;5055873;28;20425;-45
2022/11/02 03:49:16;;;;;;;8.73;4.10;;;11.00;99.90;;;;;;5055344;28;20497;-46
2022/11/02 03:51:47;;;;;;;6.83;4.03;;;11.00;99.90;;;;;;5055632;28;20856;-44
2022/11/02 03:54:19;;;;;;;6.30;4.40;;;10.80;99.90;;;;;;5055756;28;20483;-45
2022/11/02 03:56:49;;;;;;;14.87;4.20;;;11.10;99.90;;;;;;5073944;28;20409;-45
2022/11/02 03:59:16;;;;;;;6.90;4.00;;;11.20;99.90;;;;;;5055193;28;20451;-44
2022/11/02 04:01:48;;;;;;;11.37;4.43;;;10.90;99.90;;;;;;5055625;28;20562;-45
2022/11/02 04:04:15;;;;;;;5.57;3.90;;;10.60;99.90;;;;;;5055435;28;20513;-45
2022/11/02 04:06:44;;;;;;;6.23;4.00;;;10.90;99.90;;;;;;5055513;28;20452;-45
2022/11/02 04:09:12;;;;;;;4.90;3.53;;;11.00;99.90;;;;;;5054782;28;20566;-46
2022/11/02 04:14:39;;;;;;;11.70;4.83;;;11.10;99.90;;;;;;5055191;28;20443;-46
2022/11/02 04:19:57;;;;;;;13.67;4.40;;;11.60;99.90;;;;;;5055391;28;20476;-44
2022/11/02 04:25:20;;;;;;;11.10;4.33;;;10.90;99.90;;;;;;5055173;28;20608;-45
2022/11/02 04:28:13;;;;;;;6.87;4.30;;;10.70;99.90;;;;;;5069243;28;20480;-46
2022/11/02 04:30:54;;;;;;;7.47;4.50;;;11.40;99.90;;;;;;5055279;28;20462;-46
2022/11/02 04:33:33;;;;;;;9.70;4.20;;;11.20;99.90;;;;;;5055739;28;20422;-47
2022/11/02 04:36:18;;;;;;;12.27;3.80;;;11.20;99.90;;;;;;5055276;28;20420;-48
2022/11/02 04:38:49;;;;;;;11.30;4.23;;;10.60;99.90;;;;;;5054451;28;20430;-49
2022/11/02 04:41:41;;;;;;;9.13;3.67;;;11.00;99.90;;;;;;5055424;28;20500;-48
2022/11/02 04:44:28;;;;;;;9.30;4.83;;;11.10;99.90;;;;;;5055511;28;20534;-49
2022/11/02 04:47:09;;;;;;;9.40;4.00;;;10.70;99.90;;;;;;5055552;28;20454;-48
2022/11/02 04:49:37;;;;;;;8.33;3.50;;;10.80;99.90;;;;;;5073218;28;20486;-47
2022/11/02 04:52:08;;;;;;;7.80;3.33;;;10.70;99.90;;;;;;5073234;28;20426;-50
2022/11/02 04:54:36;;;;;;;9.57;3.60;;;10.60;99.90;;;;;;5055283;28;20929;-48
2022/11/02 04:57:05;;;;;;;4.73;3.40;;;10.80;99.90;;;;;;5055088;28;20422;-49
2022/11/02 04:59:33;;;;;;;10.90;3.40;;;10.60;99.90;;;;;;5054672;28;20548;-49
2022/11/02 05:01:59;;;;;;;10.60;3.60;;;10.90;99.90;;;;;;5055262;28;20856;-49
2022/11/02 05:04:26;;;;;;;9.30;4.73;;;10.80;99.90;;;;;;5055028;28;20558;-48
2022/11/02 05:06:54;;;;;;;11.37;3.50;;;10.50;99.90;;;;;;5055044;28;20454;-49
2022/11/02 05:09:22;;;;;;;10.80;3.93;;;10.50;99.90;;;;;;5054516;28;20477;-51
2022/11/02 05:11:49;;;;;;;10.43;3.43;;;10.70;99.90;;;;;;5054987;28;20466;-48
2022/11/02 05:14:16;;;;;;;7.67;3.07;;;10.60;99.90;;;;;;5055121;28;20445;-50
2022/11/02 05:16:42;;;;;;;8.17;3.50;;;10.40;99.90;;;;;;5072746;28;20428;-49
2022/11/02 05:19:10;;;;;;;6.50;3.27;;;11.20;99.90;;;;;;5054153;28;20479;-49
2022/11/02 05:21:38;;;;;;;7.97;3.80;;;10.50;99.90;;;;;;5054484;28;20971;-49
2022/11/02 05:24:07;;;;;;;6.77;3.40;;;10.40;99.90;;;;;;5054634;28;20525;-48
2022/11/02 05:26:34;;;;;;;14.43;3.60;;;11.10;99.90;;;;;;5054533;28;20794;-49
2022/11/02 05:29:01;;;;;;;6.17;3.40;;;10.50;99.90;;;;;;5054116;28;20853;-49
2022/11/02 05:31:28;;;;;;;8.10;3.13;;;10.60;99.90;;;;;;5054410;28;20458;-49
2022/11/02 05:33:56;;;;;;;7.60;4.03;;;10.60;99.90;;;;;;5054405;28;20433;-48
2022/11/02 05:36:23;;;;;;;14.67;5.40;;;10.90;99.90;;;;;;5054385;28;20414;-47
2022/11/02 05:38:52;;;;;;;8.43;3.40;;;10.60;99.90;;;;;;5053872;28;20422;-47
2022/11/02 05:41:21;;;;;;;9.07;3.30;;;10.40;99.90;;;;;;5054253;28;20466;-48
2022/11/02 05:43:49;;;;;;;10.13;4.00;;;10.50;99.90;;;;;;5054581;28;20779;-49
2022/11/02 05:46:17;;;;;;;7.73;3.30;;;10.40;99.90;;;;;;5053624;28;20527;-49
2022/11/02 05:48:44;;;;;;;14.00;3.90;;;10.50;99.90;;;;;;5070754;28;20486;-49
2022/11/02 05:51:11;;;;;;;9.40;4.10;;;10.60;99.90;;;;;;5071597;28;20461;-51
2022/11/02 05:53:37;;;;;;;12.87;4.80;;;10.80;99.90;;;;;;5072183;28;20452;-50
2022/11/02 05:56:06;;;;;;;16.73;7.10;;;10.50;99.90;;;;;;5072152;28;20414;-49
2022/11/02 05:58:34;;;;;;;17.00;5.03;;;10.50;99.90;;;;;;5071668;28;20938;-48
2022/11/02 06:01:02;;;;;;;11.27;5.10;;;10.00;99.90;;;;;;5071631;28;20405;-49
2022/11/02 06:03:30;;;;;;;12.60;4.10;;;10.10;99.90;;;;;;5071777;28;20488;-49
2022/11/02 06:05:57;;;;;;;9.07;3.53;;;10.20;99.90;;;;;;5071343;28;20401;-48
2022/11/02 06:08:23;;;;;;;7.97;3.07;;;10.50;99.90;;;;;;5071332;28;20416;-49
2022/11/02 06:10:50;;;;;;;7.60;3.63;;;9.80;99.90;;;;;;5071096;28;20428;-48
2022/11/02 06:13:17;;;;;;;14.20;4.10;;;11.10;99.90;;;;;;5071191;28;20472;-50
2022/11/02 06:15:45;;;;;;;8.50;3.20;;;11.00;99.90;;;;;;5071442;28;20441;-49
2022/11/02 06:18:11;;;;;;;11.10;5.13;;;10.50;99.90;;;;;;5071406;28;20430;-50
2022/11/02 06:20:38;;;;;;;17.77;5.17;;;10.50;99.90;;;;;;5071046;28;20715;-50
2022/11/02 06:23:04;;;;;;;12.17;3.60;;;10.40;99.90;;;;;;5053293;28;20462;-48
2022/11/02 06:25:31;;;;;;;8.50;3.47;;;10.60;99.90;;;;;;5071133;28;20416;-49
2022/11/02 06:27:58;;;;;;;11.07;3.80;;;10.90;99.90;;;;;;5071127;28;20413;-49
2022/11/02 06:30:29;;;;;;;7.27;3.57;;;10.10;99.90;;;;;;5052832;28;20457;-49
2022/11/02 06:32:57;;;;;;;9.20;4.00;;;10.20;99.90;;;;;;5070903;28;20440;-49
2022/11/02 06:35:24;;;;;;;4.80;2.73;;;10.50;99.90;;;;;;5070972;28;20419;-49
2022/11/02 06:37:51;;;;;;;8.07;3.70;;;10.80;99.90;;;;;;5070793;28;20412;-49
2022/11/02 06:40:18;;;;;;;8.40;3.10;;;9.90;99.90;;;;;;5070543;28;20401;-49
2022/11/02 06:42:44;;;;;;;8.23;3.40;;;10.50;99.90;;;;;;5071092;28;20454;-50
2022/11/02 06:45:11;;;;;;;11.00;3.90;;;10.40;99.90;;;;;;5070862;28;20951;-49
2022/11/02 06:47:39;;;;;;;6.57;2.97;;;10.60;99.90;;;;;;5071089;28;20496;-49
2022/11/02 06:50:08;;;;;;;9.60;3.93;;;10.80;99.90;;;;;;5071084;28;20454;-50
2022/11/02 06:52:35;;;;;;;15.27;5.00;;;10.60;99.90;;;;;;5071021;28;20425;-49
2022/11/02 06:55:01;;;;;;;17.80;4.63;;;10.30;99.90;;;;;;5071043;28;20446;-48
2022/11/02 06:57:28;;;;;;;8.97;4.03;;;10.40;99.90;;;;;;5053040;28;20640;-49
2022/11/02 06:59:54;;;;;;;9.13;3.93;;;10.50;99.90;;;;;;5070679;28;20473;-49
2022/11/02 07:02:21;;;;;;;13.30;3.27;;;10.70;99.90;;;;;;5074946;28;20990;-49
2022/11/02 07:04:49;;;;;;;9.60;3.70;;;10.50;99.90;;;;;;5075377;28;20408;-49
2022/11/02 07:07:17;;;;;;;13.20;4.07;;;10.20;99.90;;;;;;5074418;28;20501;-48
2022/11/02 07:09:43;;;;;;;6.63;4.10;;;10.70;99.90;;;;;;5074029;28;21013;-50
2022/11/02 07:12:10;;;;;;;13.80;5.03;;;10.90;99.90;;;;;;5074527;28;20458;-49
2022/11/02 07:14:37;;;;;;;15.20;4.10;;;10.70;99.90;;;;;;5074252;28;20425;-51
2022/11/02 07:17:03;;;;;;;10.10;4.97;;;11.30;99.90;;;;;;5074351;28;20431;-50
2022/11/02 07:19:30;;;;;;;9.53;3.67;;;10.90;99.90;;;;;;5074055;28;20454;-50
2022/11/02 07:21:57;;;;;;;11.10;3.90;;;11.00;99.90;;;;;;5055926;28;20462;-49
2022/11/02 07:24:24;;;;;;;12.40;5.23;;;11.30;99.90;;;;;;5073838;28;20406;-50
2022/11/02 07:26:51;;;;;;;12.73;4.57;;;10.90;99.90;;;;;;5073914;28;20431;-49
2022/11/02 07:29:18;;;;;;;12.30;4.30;;;10.80;99.90;;;;;;5073673;28;21022;-50
2022/11/02 07:31:45;;;;;;;13.13;4.77;;;10.90;99.90;;;;;;5073392;28;20997;-50
2022/11/02 07:34:12;;;;;;;15.40;4.53;;;11.00;99.90;;;;;;5056295;28;20425;-51
2022/11/02 07:36:39;;;;;;;7.43;3.53;;;10.90;99.90;;;;;;5074077;28;20442;-49
2022/11/02 07:39:06;;;;;;;12.87;3.63;;;10.80;99.90;;;;;;5073512;28;20436;-51
2022/11/02 07:41:35;;;;;;;8.57;4.03;;;11.30;99.90;;;;;;5073678;28;20450;-49
2022/11/02 07:44:01;;;;;;;10.40;4.03;;;11.40;99.90;;;;;;5073872;28;20418;-49
2022/11/02 07:46:52;;;;;;;8.47;2.70;;;10.60;99.90;;;;;;5073421;28;20417;-49
2022/11/02 07:49:19;;;;;;;9.47;3.77;;;11.70;99.90;;;;;;5073232;28;20543;-49
2022/11/02 07:51:46;;;;;;;9.70;4.13;;;11.40;99.90;;;;;;5073856;28;20756;-51
2022/11/02 07:54:12;;;;;;;11.00;3.73;;;11.20;99.90;;;;;;5073572;28;20841;-50
2022/11/02 07:56:40;;;;;;;18.20;4.70;;;11.80;99.90;;;;;;5073827;28;20447;-50
2022/11/02 07:59:09;;;;;;;9.93;3.83;;;11.60;99.90;;;;;;5073271;28;20812;-49
2022/11/02 08:01:36;;;;;;;10.10;4.03;;;12.20;99.90;;;;;;5073707;28;20429;-49
2022/11/02 08:04:02;;;;;;;13.33;5.37;;;11.90;99.90;;;;;;5073327;28;20446;-50
2022/11/02 08:06:29;;;;;;;13.80;4.73;;;12.00;99.90;;;;;;5073436;28;20435;-49
2022/11/02 08:08:55;;;;;;;9.00;3.70;;;12.10;99.90;;;;;;5072797;28;20510;-49
2022/11/02 08:11:22;;;;;;;12.30;3.30;;;12.30;99.90;;;;;;5073004;28;20824;-49
2022/11/02 08:13:50;;;;;;;8.00;3.13;;;12.60;99.90;;;;;;5072644;28;20433;-51
2022/11/02 08:16:17;;;;;;;18.47;3.97;;;12.60;99.90;;;;;;5072990;28;20753;-50
2022/11/02 08:18:43;;;;;;;7.73;3.23;;;12.40;99.90;;;;;;5073102;28;20527;-47
2022/11/02 08:21:10;;;;;;;13.17;3.73;;;12.70;99.90;;;;;;5073317;28;20466;-49
2022/11/02 08:23:37;;;;;;;7.30;2.63;;;13.00;99.90;;;;;;5073359;28;20454;-49
2022/11/02 08:26:03;;;;;;;13.50;3.87;;;12.60;99.90;;;;;;5073502;28;20444;-49
2022/11/02 08:28:34;;;;;;;12.57;3.37;;;12.70;99.90;;;;;;5072600;28;20550;-49
2022/11/02 08:31:02;;;;;;;11.10;2.67;;;12.70;99.90;;;;;;5072995;28;20482;-51
2022/11/02 08:33:29;;;;;;;15.13;3.67;;;13.30;99.90;;;;;;5072849;28;20400;-49
2022/11/02 08:36:02;;;;;;;10.83;3.67;;;13.00;99.90;;;;;;5073076;28;20434;-49
2022/11/02 08:38:29;;;;;;;17.33;3.70;;;13.00;99.90;;;;;;5071002;28;20447;-49
2022/11/02 08:40:55;;;;;;;5.80;3.07;;;13.40;99.90;;;;;;5072049;28;20604;-50
2022/11/02 08:43:22;;;;;;;10.67;4.17;;;13.10;99.90;;;;;;5070601;28;20453;-49
2022/11/02 08:45:49;;;;;;;14.03;4.60;;;13.50;99.90;;;;;;5072448;28;20889;-49
2022/11/02 08:48:17;;;;;;;17.20;3.77;;;13.10;99.90;;;;;;5072344;28;20439;-49
2022/11/02 08:50:43;;;;;;;13.40;4.20;;;12.70;99.90;;;;;;5071885;28;20451;-48
2022/11/02 08:53:10;;;;;;;10.73;4.20;;;13.40;99.90;;;;;;5072688;28;20434;-48
2022/11/02 08:55:37;;;;;;;16.03;3.70;;;13.40;99.90;;;;;;5072996;28;20448;-49
2022/11/02 08:58:03;;;;;;;9.47;3.67;;;13.10;99.90;;;;;;5072326;28;20433;-50
2022/11/02 09:00:32;;;;;;;12.03;4.20;;;13.80;99.90;;;;;;5071923;28;20551;-50
2022/11/02 09:03:00;;;;;;;7.50;3.27;;;12.70;99.90;;;;;;5072206;28;20449;-49
2022/11/02 09:05:29;;;;;;;17.40;4.33;;;13.40;99.90;;;;;;5071786;28;20892;-49
2022/11/02 09:07:58;;;;;;;15.47;5.73;;;12.90;99.90;;;;;;5071612;28;20991;-49
2022/11/02 09:10:25;;;;;;;12.50;3.87;;;12.90;99.90;;;;;;5071839;28;20550;-50
2022/11/02 09:12:52;;;;;;;12.03;4.63;;;13.40;99.90;;;;;;5071873;28;20461;-51
2022/11/02 09:15:19;;;;;;;13.93;4.10;;;12.90;99.90;;;;;;5072133;28;20437;-50
2022/11/02 09:17:47;;;;;;;7.60;4.50;;;13.00;99.90;;;;;;5071989;28;20415;-49
2022/11/02 09:20:15;;;;;;;11.00;3.93;;;12.80;99.90;;;;;;5071901;28;20398;-51
2022/11/02 09:22:43;;;;;;;12.20;3.67;;;13.10;99.90;;;;;;5071445;28;20494;-50
2022/11/02 09:25:10;;;;;;;8.33;3.07;;;12.90;99.90;;;;;;5071925;28;20449;-48
2022/11/02 09:27:37;;;;;;;11.03;4.33;;;12.60;99.90;;;;;;5072056;28;20893;-50
2022/11/02 09:30:04;;;;;;;14.27;4.57;;;12.50;99.90;;;;;;5071831;28;20533;-49
2022/11/02 09:32:32;;;;;;;9.73;4.47;;;12.90;99.90;;;;;;5070955;28;20468;-49
2022/11/02 09:34:59;;;;;;;16.60;4.87;;;13.40;99.90;;;;;;5071530;28;20440;-49
2022/11/02 09:37:26;;;;;;;17.20;4.07;;;13.00;99.90;;;;;;5071459;28;20768;-49
2022/11/02 09:39:54;;;;;;;15.60;4.37;;;13.30;99.90;;;;;;5071472;28;20410;-50
2022/11/02 09:42:24;;;;;;;20.00;4.30;;;13.30;99.90;;;;;;5071778;28;20424;-49
2022/11/02 09:44:58;;;;;;;14.00;3.70;;;13.10;99.90;;;;;;5071353;28;20443;-49
2022/11/02 09:47:27;;;;;;;9.10;3.37;;;13.30;99.90;;;;;;5072210;28;20411;-49
2022/11/02 09:49:58;;;;;;;9.43;3.70;;;13.30;99.90;;;;;;5071597;28;20484;-50
2022/11/02 09:52:32;;;;;;;12.80;3.60;;;13.40;99.90;;;;;;5070686;28;20472;-49
2022/11/02 09:55:04;;;;;;;7.10;2.77;;;13.30;99.90;;;;;;5071592;28;20904;-49
2022/11/02 09:57:32;;;;;;;8.97;3.20;;;13.50;99.90;;;;;;5071266;28;20414;-49
2022/11/02 10:00:01;;;;;;;13.57;3.23;;;13.40;99.90;;;;;;5069591;28;20445;-50
2022/11/02 10:02:43;;;;;;;12.13;3.07;;;13.60;99.90;;;;;;5071327;28;20513;-50
2022/11/02 10:05:24;;;;;;;8.37;2.67;;;14.00;99.90;;;;;;5071325;28;20927;-50
2022/11/02 10:08:06;;;;;;;12.30;3.23;;;13.70;99.90;;;;;;5071022;28;20473;-49
2022/11/02 10:10:39;;;;;;;10.40;3.23;;;14.20;99.90;;;;;;5070832;28;20453;-49
2022/11/02 10:13:19;;;;;;;12.00;3.90;;;13.60;99.90;;;;;;5070980;28;20420;-49
2022/11/02 10:15:50;;;;;;;9.30;3.20;;;14.10;99.90;;;;;;5070817;28;20441;-50
2022/11/02 10:18:25;;;;;;;14.80;3.47;;;13.70;99.90;;;;;;5070811;28;20400;-51
2022/11/02 10:20:55;;;;;;;14.77;3.00;;;14.10;99.90;;;;;;5070956;28;20430;-51
2022/11/02 10:23:27;;;;;;;11.10;2.90;;;14.00;99.90;;;;;;5070856;28;20463;-49
2022/11/02 10:25:55;;;;;;;9.17;3.20;;;14.10;99.90;;;;;;5070958;28;20767;-49
2022/11/02 10:28:27;;;;;;;6.40;2.47;;;13.90;99.90;;;;;;5070684;28;20793;-48
2022/11/02 10:30:54;;;;;;;9.93;3.47;;;14.00;99.90;;;;;;5070515;28;20451;-49
2022/11/02 10:33:27;;;;;;;10.30;2.70;;;13.80;99.90;;;;;;5071329;28;20434;-49
2022/11/02 10:36:15;;;;;;;7.17;2.30;;;14.00;99.90;;;;;;5069929;28;20523;-49
2022/11/02 10:38:53;;;;;;;12.47;3.43;;;14.10;99.90;;;;;;5070137;28;20441;-51
2022/11/02 10:41:34;;;;;;;9.27;3.57;;;14.40;99.90;;;;;;5070830;28;20430;-51
2022/11/02 10:44:17;;;;;;;18.07;4.03;;;14.20;99.90;;;;;;5070761;28;20404;-52
2022/11/02 10:46:58;;;;;;;14.17;3.10;;;14.10;99.90;;;;;;5070642;28;20433;-51
2022/11/02 10:49:49;;;;;;;12.40;3.67;;;14.10;99.90;;;;;;5070217;28;20916;-52
2022/11/02 10:52:17;;;;;;;9.30;3.00;;;14.30;99.90;;;;;;5070766;28;20491;-51
2022/11/02 10:54:44;;;;;;;12.80;3.70;;;14.30;99.90;;;;;;5071217;28;20512;-51
2022/11/02 10:57:14;;;;;;;14.23;3.40;;;14.80;99.90;;;;;;5070791;28;20933;-51
2022/11/02 10:59:41;;;;;;;11.33;3.20;;;14.60;99.90;;;;;;5068559;28;20450;-51
2022/11/02 11:02:13;;;;;;;11.90;3.23;;;14.40;99.90;;;;;;5070920;28;20541;-51
2022/11/02 11:04:41;;;;;;;8.40;3.10;;;14.50;99.90;;;;;;5070963;28;20437;-51
2022/11/02 11:07:13;;;;;;;9.17;2.90;;;14.50;99.90;;;;;;5070718;28;20437;-50
2022/11/02 11:09:50;;;;;;;14.70;4.00;;;14.70;99.90;;;;;;5070487;28;20408;-49
2022/11/02 11:12:21;;;;;;;26.00;3.87;;;14.80;99.90;;;;;;5070988;28;20487;-50
2022/11/02 11:14:52;;;;;;;12.80;2.70;;;14.80;99.90;;;;;;5071043;28;20524;-49
2022/11/02 11:17:22;;;;;;;13.60;3.10;;;15.10;99.90;;;;;;5070644;28;20717;-51
2022/11/02 11:19:51;;;;;;;16.30;3.07;;;14.90;99.90;;;;;;5070772;28;20440;-52
2022/11/02 11:22:24;;;;;;;6.60;3.47;;;15.00;99.90;;;;;;5070704;28;20459;-49
2022/11/02 11:24:51;;;;;;;10.33;2.87;;;15.40;99.90;;;;;;5071577;28;20432;-51
2022/11/02 11:27:21;;;;;;;12.27;3.53;;;15.20;99.90;;;;;;5071299;28;20875;-49
2022/11/02 11:29:51;;;;;;;9.10;2.53;;;15.40;99.90;;;;;;5070623;28;20412;-52
2022/11/02 11:32:21;;;;;;;7.73;2.90;;;15.60;99.90;;;;;;5069743;28;20501;-50
2022/11/02 11:34:55;;;;;;;12.20;3.87;;;15.60;99.90;;;;;;5070024;28;20910;-53
2022/11/02 11:37:22;;;;;;;9.13;2.90;;;15.40;99.90;;;;;;5070121;28;20433;-51
2022/11/02 11:39:53;;;;;;;13.43;4.03;;;15.60;99.90;;;;;;5069521;28;20434;-51
2022/11/02 11:42:23;;;;;;;6.50;3.27;;;15.70;99.90;;;;;;5069768;28;20466;-51
2022/11/02 11:44:56;;;;;;;14.70;3.00;;;15.90;99.90;;;;;;5070029;28;20433;-51
2022/11/02 11:47:32;;;;;;;8.83;2.90;;;15.80;99.90;;;;;;5070474;28;20435;-50
2022/11/02 11:50:02;;;;;;;10.03;3.50;;;15.90;99.90;;;;;;5072925;28;20443;-52
2022/11/02 11:52:31;;;;;;;10.50;2.80;;;16.10;99.90;;;;;;5073168;28;20520;-49
2022/11/02 11:54:59;;;;;;;8.57;2.03;;;16.00;99.90;;;;;;5073631;28;20460;-50
2022/11/02 11:57:30;;;;;;;10.47;3.23;;;16.10;99.90;;;;;;5073406;28;20415;-50
2022/11/02 12:00:00;;;;;;;6.40;2.33;;;15.90;99.90;;;;;;5073327;28;20413;-50
2022/11/02 12:02:29;;;;;;;8.27;2.20;;;15.80;99.90;;;;;;5073578;28;20451;-51
2022/11/02 12:05:01;;;;;;;12.23;3.03;;;16.10;99.90;;;;;;5073699;28;20866;-51
2022/11/02 12:07:51;;;;;;;7.47;3.00;;;16.00;99.90;;;;;;5073122;28;20438;-51
2022/11/02 12:10:23;;;;;;;7.80;2.77;;;16.00;99.90;;;;;;5072960;28;20433;-51
2022/11/02 12:13:03;;;;;;;9.00;3.63;;;16.00;99.90;;;;;;5073189;28;20466;-51
2022/11/02 12:15:44;;;;;;;10.10;2.70;;;16.00;99.90;;;;;;5073178;28;20432;-52
2022/11/02 12:18:26;;;;;;;5.30;2.30;;;16.10;99.90;;;;;;5072687;28;20412;-51
2022/11/02 12:21:10;;;;;;;18.00;3.60;;;15.90;99.90;;;;;;5072900;28;20412;-50
2022/11/02 12:23:56;;;;;;;10.17;4.27;;;15.90;99.90;;;;;;5072813;28;20449;-47
2022/11/02 12:26:35;;;;;;;32.30;4.83;;;15.70;99.90;;;;;;5079736;28;20447;-49
2022/11/02 12:29:19;;;;;;;16.77;3.87;;;15.90;99.90;;;;;;5092850;28;20439;-49
2022/11/02 12:31:52;;;;;;;9.53;2.90;;;15.80;99.90;;;;;;5092760;28;20465;-48
2022/11/02 12:34:42;;;;;;;8.77;3.07;;;15.90;99.90;;;;;;5093440;28;20412;-48
2022/11/02 12:37:17;;;;;;;10.90;3.10;;;16.00;99.90;;;;;;5093524;28;20632;-48
2022/11/02 12:39:56;;;;;;;10.53;2.80;;;16.10;99.90;;;;;;5092815;28;20538;-49
2022/11/02 12:42:27;;;;;;;14.33;2.87;;;15.90;99.90;;;;;;5092714;28;20454;-49
2022/11/02 12:45:18;;;;;;;7.57;2.93;;;16.50;99.90;;;;;;5074640;28;20440;-49
2022/11/02 12:47:56;;;;;;;9.20;3.20;;;16.00;99.90;;;;;;5092707;28;20742;-50
2022/11/02 12:50:31;;;;;;;10.90;3.27;;;16.10;99.90;;;;;;5092528;28;20411;-49
2022/11/02 12:53:08;;;;;;;10.63;3.03;;;16.20;99.90;;;;;;5092751;28;20436;-48
2022/11/02 12:55:39;;;;;;;8.17;2.83;;;16.10;99.60;;;;;;5093039;28;20420;-49
2022/11/02 12:58:13;;;;;;;9.20;2.37;;;16.30;99.50;;;;;;5092319;28;20428;-51
2022/11/02 13:00:45;;;;;;;9.03;2.23;;;16.40;98.90;;;;;;5092221;28;20423;-48
2022/11/02 13:03:24;;;;;;;10.30;2.30;;;16.40;97.90;;;;;;5092486;28;20454;-48
2022/11/02 13:05:56;;;;;;;13.63;2.17;;;16.20;97.30;;;;;;5092540;28;20490;-48